Alya — FGSK — position and weather

sailwx.info

Track history (hours):
 
Tides and Currents Weather Stations Pressure Air Temp Water Temp Dewpoint Dewpoint Depression Visibility Wind Speed Wind Dir Waves Ship Positions

Alya

Last reported at 2017-Nov-19 22:34 UTC. Time now 2017-Nov-20 13:14 UTC.
Position N 48°25' W 005°12'.

Length 24 m.

Type: Other ship. MMSI: 227392000.

Date/timePositionNaut miles runAvg speedWind from/ knotsBaromVisibWave heightAir tempDewpointWater temp
2017-Nov-19 22:34N 48°25' W 005°12'2 9.5
2017-Nov-19 22:22N 48°24' W 005°10'4 9.3
2017-Nov-19 22:00N 48°21' W 005°06'4 8.3
2017-Nov-19 21:29N 48°18' W 005°02'4 8.8
2017-Nov-19 20:59N 48°14' W 004°58'4 9.2
2017-Nov-19 20:30N 48°12' W 004°53'5 9.5
2017-Nov-19 20:00N 48°10' W 004°47'5 9.9
2017-Nov-19 19:30N 48°08' W 004°40'510.0
2017-Nov-19 19:00N 48°08' W 004°32'510.0
2017-Nov-19 18:30N 48°08' W 004°25'4 8.7
2017-Nov-19 18:01N 48°06' W 004°19'0 0.8
2017-Nov-19 17:30N 48°06' W 004°20'0 0.0
2017-Nov-19 17:00N 48°06' W 004°20'0 0.0
2017-Nov-19 16:30N 48°06' W 004°20'0 0.0
2017-Nov-19 16:00N 48°06' W 004°20'0 0.0
2017-Nov-19 15:30N 48°06' W 004°20'0 0.0
2017-Nov-19 15:00N 48°06' W 004°20'0 0.0
2017-Nov-19 14:30N 48°06' W 004°20'0 0.0
2017-Nov-19 14:00N 48°06' W 004°20'0 0.0
2017-Nov-19 13:30N 48°06' W 004°20'0 0.2
2017-Nov-19 13:00N 48°06' W 004°20'0 0.0
2017-Nov-19 12:30N 48°06' W 004°20'0 0.1
2017-Nov-19 12:00N 48°06' W 004°19'0 0.0
2017-Nov-19 11:30N 48°06' W 004°19'0 0.0
2017-Nov-19 11:00N 48°06' W 004°19'0 0.0
2017-Nov-19 10:30N 48°06' W 004°19'0 0.0
2017-Nov-19 10:01N 48°06' W 004°19'0 0.0
2017-Nov-19 09:30N 48°06' W 004°19'0 0.0
2017-Nov-19 09:01N 48°06' W 004°19'0 0.0
2017-Nov-19 08:31N 48°06' W 004°19'0 0.0
2017-Nov-19 08:01N 48°06' W 004°19'0 0.0
2017-Nov-19 07:31N 48°06' W 004°19'0 0.0
2017-Nov-19 07:01N 48°06' W 004°19'0 0.0
2017-Nov-19 06:30N 48°06' W 004°19'0 0.0
2017-Nov-19 06:01N 48°06' W 004°19'0 0.0
2017-Nov-19 05:31N 48°06' W 004°19'0 0.0
2017-Nov-19 05:01N 48°06' W 004°19'0 0.0
2017-Nov-19 04:30N 48°06' W 004°19'0 0.0
2017-Nov-19 04:00N 48°06' W 004°19'0 0.0
2017-Nov-19 03:30N 48°06' W 004°19'0 0.0
2017-Nov-19 03:01N 48°06' W 004°19'0 0.0
2017-Nov-19 02:30N 48°06' W 004°19'0 0.0
2017-Nov-19 02:01N 48°06' W 004°19'0 0.0
2017-Nov-19 01:30N 48°06' W 004°19'0 0.0
2017-Nov-19 01:00N 48°06' W 004°19'0 0.0
2017-Nov-19 00:30N 48°06' W 004°19'0 0.0
2017-Nov-19 00:01N 48°06' W 004°19'0 0.0
2017-Nov-18 23:30N 48°06' W 004°19'0 0.0
2017-Nov-18 23:01N 48°06' W 004°19'0 0.0
2017-Nov-18 22:30N 48°06' W 004°19'0 0.0
2017-Nov-18 22:00N 48°06' W 004°19'0 0.0
2017-Nov-18 21:30N 48°06' W 004°19'0 0.0
2017-Nov-18 21:01N 48°06' W 004°19'0 0.0
2017-Nov-18 20:31N 48°06' W 004°19'0 0.0
2017-Nov-18 20:01N 48°06' W 004°19'0 0.0
2017-Nov-18 19:30N 48°06' W 004°19'0 0.0
2017-Nov-18 19:00N 48°06' W 004°19'0 0.0
2017-Nov-18 18:30N 48°06' W 004°19'0 0.0
2017-Nov-18 18:00N 48°06' W 004°19'0 0.0
2017-Nov-18 17:30N 48°06' W 004°19'0 0.0
2017-Nov-18 17:01N 48°06' W 004°19'0 0.0
2017-Nov-18 16:30N 48°06' W 004°19'0 0.0
2017-Nov-18 16:00N 48°06' W 004°19'0 0.0
2017-Nov-18 15:30N 48°06' W 004°19'0 0.0
2017-Nov-18 15:00N 48°06' W 004°19'0 0.0
2017-Nov-18 14:30N 48°06' W 004°19'0 0.0
2017-Nov-18 14:00N 48°06' W 004°19'0 0.0
2017-Nov-18 13:30N 48°06' W 004°19'0 0.0
2017-Nov-18 13:00N 48°06' W 004°19'0 0.0
2017-Nov-18 12:30N 48°06' W 004°19'0 0.0
2017-Nov-18 12:01N 48°06' W 004°19'0 0.0
2017-Nov-18 11:31N 48°06' W 004°19'0 0.0
2017-Nov-18 11:00N 48°06' W 004°19'0 0.0
2017-Nov-18 10:30N 48°06' W 004°19'0 0.0
2017-Nov-18 10:00N 48°06' W 004°19'0 0.0
2017-Nov-18 09:30N 48°06' W 004°19'0 0.0
2017-Nov-18 09:00N 48°06' W 004°19'0 0.0
2017-Nov-18 08:31N 48°06' W 004°19'0 0.0
2017-Nov-18 08:01N 48°06' W 004°19'0 0.0
2017-Nov-18 07:30N 48°06' W 004°19'0 0.0
2017-Nov-18 07:00N 48°06' W 004°19'0 0.0
2017-Nov-18 06:30N 48°06' W 004°19'0 0.0
2017-Nov-18 06:00N 48°06' W 004°19'0 0.0
2017-Nov-18 05:30N 48°06' W 004°19'0 0.0
2017-Nov-18 05:00N 48°06' W 004°19'0 0.0
2017-Nov-18 04:30N 48°06' W 004°19'0 0.0
2017-Nov-18 04:01N 48°06' W 004°19'0 0.0
2017-Nov-18 03:31N 48°06' W 004°19'0 0.0
2017-Nov-18 03:00N 48°06' W 004°19'0 0.0
2017-Nov-18 02:30N 48°06' W 004°19'0 0.0
2017-Nov-18 02:00N 48°06' W 004°19'0 0.0
2017-Nov-18 01:31N 48°06' W 004°19'0 0.0
2017-Nov-18 01:01N 48°06' W 004°19'0 0.0
2017-Nov-18 00:31N 48°06' W 004°19'0 0.0
2017-Nov-18 00:01N 48°06' W 004°19'0 0.0
2017-Nov-17 23:30N 48°06' W 004°19'0 0.0
2017-Nov-17 23:01N 48°06' W 004°19'0 0.0
2017-Nov-17 22:31N 48°06' W 004°19'0 0.0
2017-Nov-17 22:01N 48°06' W 004°19'0 0.0
2017-Nov-17 21:30N 48°06' W 004°19'0 0.0
2017-Nov-17 21:00N 48°06' W 004°19'0 0.0
2017-Nov-17 20:30N 48°06' W 004°19'0 0.0
2017-Nov-17 20:00N 48°06' W 004°19'0 0.0
2017-Nov-17 19:31N 48°06' W 004°19'0 0.0
2017-Nov-17 19:00N 48°06' W 004°19'0 0.0
2017-Nov-17 18:30N 48°06' W 004°19'0 0.0
2017-Nov-17 18:00N 48°06' W 004°19'0 0.0
2017-Nov-17 17:30N 48°06' W 004°19'0 0.0
2017-Nov-17 17:01N 48°06' W 004°19'0 0.0
2017-Nov-17 16:30N 48°06' W 004°19'0 0.0
2017-Nov-17 16:00N 48°06' W 004°19'0 0.0
2017-Nov-17 15:31N 48°06' W 004°19'0 0.0
2017-Nov-17 15:01N 48°06' W 004°19'0 0.0
2017-Nov-17 14:30N 48°06' W 004°19'0 0.0
2017-Nov-17 14:00N 48°06' W 004°19'0 0.0
2017-Nov-16 20:19N 48°06' W 004°19'0 0.0
2017-Nov-16 20:00N 48°06' W 004°19'0 0.0
2017-Nov-16 19:30N 48°06' W 004°19'0 0.0
2017-Nov-16 19:00N 48°06' W 004°19'0 0.0
2017-Nov-16 18:30N 48°06' W 004°19'0 0.0
2017-Nov-16 18:00N 48°06' W 004°19'0 0.0
2017-Nov-16 17:30N 48°06' W 004°19'0 0.0
2017-Nov-16 17:00N 48°06' W 004°19'0 0.0
2017-Nov-16 16:30N 48°06' W 004°19'0 0.0
2017-Nov-16 16:00N 48°06' W 004°19'0 0.0
2017-Nov-16 15:30N 48°06' W 004°19'0 0.0
2017-Nov-16 15:00N 48°06' W 004°19'  
Track history (hours):
 
Tides and Currents Weather Stations Pressure Air Temp Water Temp Dewpoint Dewpoint Depression Visibility Wind Speed Wind Dir Waves Ship Positions

Alya

Last reported at 2017-Nov-19 22:34 UTC. Time now 2017-Nov-20 13:14 UTC.
Position N 48°25' W 005°12'.

Length 24 m.

Type: Other ship. MMSI: 227392000.

Date/timePositionNaut miles runAvg speedWind from/ knotsBaromVisibWave heightAir tempDewpointWater temp
2017-Nov-19 22:34N 48°25' W 005°12'2 9.5
2017-Nov-19 22:22N 48°24' W 005°10'4 9.3
2017-Nov-19 22:00N 48°21' W 005°06'4 8.3
2017-Nov-19 21:29N 48°18' W 005°02'4 8.8
2017-Nov-19 20:59N 48°14' W 004°58'4 9.2
2017-Nov-19 20:30N 48°12' W 004°53'5 9.5
2017-Nov-19 20:00N 48°10' W 004°47'5 9.9
2017-Nov-19 19:30N 48°08' W 004°40'510.0
2017-Nov-19 19:00N 48°08' W 004°32'510.0
2017-Nov-19 18:30N 48°08' W 004°25'4 8.7
2017-Nov-19 18:01N 48°06' W 004°19'0 0.8
2017-Nov-19 17:30N 48°06' W 004°20'0 0.0
2017-Nov-19 17:00N 48°06' W 004°20'0 0.0
2017-Nov-19 16:30N 48°06' W 004°20'0 0.0
2017-Nov-19 16:00N 48°06' W 004°20'0 0.0
2017-Nov-19 15:30N 48°06' W 004°20'0 0.0
2017-Nov-19 15:00N 48°06' W 004°20'0 0.0
2017-Nov-19 14:30N 48°06' W 004°20'0 0.0
2017-Nov-19 14:00N 48°06' W 004°20'0 0.0
2017-Nov-19 13:30N 48°06' W 004°20'0 0.2
2017-Nov-19 13:00N 48°06' W 004°20'0 0.0
2017-Nov-19 12:30N 48°06' W 004°20'0 0.1
2017-Nov-19 12:00N 48°06' W 004°19'0 0.0
2017-Nov-19 11:30N 48°06' W 004°19'0 0.0
2017-Nov-19 11:00N 48°06' W 004°19'0 0.0
2017-Nov-19 10:30N 48°06' W 004°19'0 0.0
2017-Nov-19 10:01N 48°06' W 004°19'0 0.0
2017-Nov-19 09:30N 48°06' W 004°19'0 0.0
2017-Nov-19 09:01N 48°06' W 004°19'0 0.0
2017-Nov-19 08:31N 48°06' W 004°19'0 0.0
2017-Nov-19 08:01N 48°06' W 004°19'0 0.0
2017-Nov-19 07:31N 48°06' W 004°19'0 0.0
2017-Nov-19 07:01N 48°06' W 004°19'0 0.0
2017-Nov-19 06:30N 48°06' W 004°19'0 0.0
2017-Nov-19 06:01N 48°06' W 004°19'0 0.0
2017-Nov-19 05:31N 48°06' W 004°19'0 0.0
2017-Nov-19 05:01N 48°06' W 004°19'0 0.0
2017-Nov-19 04:30N 48°06' W 004°19'0 0.0
2017-Nov-19 04:00N 48°06' W 004°19'0 0.0
2017-Nov-19 03:30N 48°06' W 004°19'0 0.0
2017-Nov-19 03:01N 48°06' W 004°19'0 0.0
2017-Nov-19 02:30N 48°06' W 004°19'0 0.0
2017-Nov-19 02:01N 48°06' W 004°19'0 0.0
2017-Nov-19 01:30N 48°06' W 004°19'0 0.0
2017-Nov-19 01:00N 48°06' W 004°19'0 0.0
2017-Nov-19 00:30N 48°06' W 004°19'0 0.0
2017-Nov-19 00:01N 48°06' W 004°19'0 0.0
2017-Nov-18 23:30N 48°06' W 004°19'0 0.0
2017-Nov-18 23:01N 48°06' W 004°19'0 0.0
2017-Nov-18 22:30N 48°06' W 004°19'0 0.0
2017-Nov-18 22:00N 48°06' W 004°19'0 0.0
2017-Nov-18 21:30N 48°06' W 004°19'0 0.0
2017-Nov-18 21:01N 48°06' W 004°19'0 0.0
2017-Nov-18 20:31N 48°06' W 004°19'0 0.0
2017-Nov-18 20:01N 48°06' W 004°19'0 0.0
2017-Nov-18 19:30N 48°06' W 004°19'0 0.0
2017-Nov-18 19:00N 48°06' W 004°19'0 0.0
2017-Nov-18 18:30N 48°06' W 004°19'0 0.0
2017-Nov-18 18:00N 48°06' W 004°19'0 0.0
2017-Nov-18 17:30N 48°06' W 004°19'0 0.0
2017-Nov-18 17:01N 48°06' W 004°19'0 0.0
2017-Nov-18 16:30N 48°06' W 004°19'0 0.0
2017-Nov-18 16:00N 48°06' W 004°19'0 0.0
2017-Nov-18 15:30N 48°06' W 004°19'0 0.0
2017-Nov-18 15:00N 48°06' W 004°19'0 0.0
2017-Nov-18 14:30N 48°06' W 004°19'0 0.0
2017-Nov-18 14:00N 48°06' W 004°19'0 0.0
2017-Nov-18 13:30N 48°06' W 004°19'0 0.0
2017-Nov-18 13:00N 48°06' W 004°19'0 0.0
2017-Nov-18 12:30N 48°06' W 004°19'0 0.0
2017-Nov-18 12:01N 48°06' W 004°19'0 0.0
2017-Nov-18 11:31N 48°06' W 004°19'0 0.0
2017-Nov-18 11:00N 48°06' W 004°19'0 0.0
2017-Nov-18 10:30N 48°06' W 004°19'0 0.0
2017-Nov-18 10:00N 48°06' W 004°19'0 0.0
2017-Nov-18 09:30N 48°06' W 004°19'0 0.0
2017-Nov-18 09:00N 48°06' W 004°19'0 0.0
2017-Nov-18 08:31N 48°06' W 004°19'0 0.0
2017-Nov-18 08:01N 48°06' W 004°19'0 0.0
2017-Nov-18 07:30N 48°06' W 004°19'0 0.0
2017-Nov-18 07:00N 48°06' W 004°19'0 0.0
2017-Nov-18 06:30N 48°06' W 004°19'0 0.0
2017-Nov-18 06:00N 48°06' W 004°19'0 0.0
2017-Nov-18 05:30N 48°06' W 004°19'0 0.0
2017-Nov-18 05:00N 48°06' W 004°19'0 0.0
2017-Nov-18 04:30N 48°06' W 004°19'0 0.0
2017-Nov-18 04:01N 48°06' W 004°19'0 0.0
2017-Nov-18 03:31N 48°06' W 004°19'0 0.0
2017-Nov-18 03:00N 48°06' W 004°19'0 0.0
2017-Nov-18 02:30N 48°06' W 004°19'0 0.0
2017-Nov-18 02:00N 48°06' W 004°19'0 0.0
2017-Nov-18 01:31N 48°06' W 004°19'0 0.0
2017-Nov-18 01:01N 48°06' W 004°19'0 0.0
2017-Nov-18 00:31N 48°06' W 004°19'0 0.0
2017-Nov-18 00:01N 48°06' W 004°19'0 0.0
2017-Nov-17 23:30N 48°06' W 004°19'0 0.0
2017-Nov-17 23:01N 48°06' W 004°19'0 0.0
2017-Nov-17 22:31N 48°06' W 004°19'0 0.0
2017-Nov-17 22:01N 48°06' W 004°19'0 0.0
2017-Nov-17 21:30N 48°06' W 004°19'0 0.0
2017-Nov-17 21:00N 48°06' W 004°19'0 0.0
2017-Nov-17 20:30N 48°06' W 004°19'0 0.0
2017-Nov-17 20:00N 48°06' W 004°19'0 0.0
2017-Nov-17 19:31N 48°06' W 004°19'0 0.0
2017-Nov-17 19:00N 48°06' W 004°19'0 0.0
2017-Nov-17 18:30N 48°06' W 004°19'0 0.0
2017-Nov-17 18:00N 48°06' W 004°19'0 0.0
2017-Nov-17 17:30N 48°06' W 004°19'0 0.0
2017-Nov-17 17:01N 48°06' W 004°19'0 0.0
2017-Nov-17 16:30N 48°06' W 004°19'0 0.0
2017-Nov-17 16:00N 48°06' W 004°19'0 0.0
2017-Nov-17 15:31N 48°06' W 004°19'0 0.0
2017-Nov-17 15:01N 48°06' W 004°19'0 0.0
2017-Nov-17 14:30N 48°06' W 004°19'0 0.0
2017-Nov-17 14:00N 48°06' W 004°19'0 0.0
2017-Nov-16 20:19N 48°06' W 004°19'0 0.0
2017-Nov-16 20:00N 48°06' W 004°19'0 0.0
2017-Nov-16 19:30N 48°06' W 004°19'0 0.0
2017-Nov-16 19:00N 48°06' W 004°19'0 0.0
2017-Nov-16 18:30N 48°06' W 004°19'0 0.0
2017-Nov-16 18:00N 48°06' W 004°19'0 0.0
2017-Nov-16 17:30N 48°06' W 004°19'0 0.0
2017-Nov-16 17:00N 48°06' W 004°19'0 0.0
2017-Nov-16 16:30N 48°06' W 004°19'0 0.0
2017-Nov-16 16:00N 48°06' W 004°19'0 0.0
2017-Nov-16 15:30N 48°06' W 004°19'0 0.0
2017-Nov-16 15:00N 48°06' W 004°19'  

Dump ship's entire track history